Time;durP1;ratioP1;P1;durP2;ratioP2;P2;SDS_P1;SDS_P2;PMS_P1;PMS_P2;Temp;Humidity;BMP_temperature;BMP_pressure;BME280_temperature;BME280_humidity;BME280_pressure;Samples;Min_cycle;Max_cycle;Signal;HPM_P1;HPM_P2
2020/12/11 00:00:37;;;;;;;20.50;9.37;;;1.30;99.90;;;-0.64;81.75;100000.06;4980371;28;20042;-40
2020/12/11 00:03:05;;;;;;;20.53;9.13;;;1.30;99.90;;;-0.61;81.53;99999.75;4980542;28;20443;-40
2020/12/11 00:05:32;;;;;;;19.73;9.40;;;1.30;99.90;;;-0.64;82.01;99995.56;4963765;28;20092;-40
2020/12/11 00:07:59;;;;;;;19.40;8.95;;;1.30;99.90;;;-0.65;82.08;99998.38;4964580;28;20052;-40
2020/12/11 00:10:28;;;;;;;21.75;9.77;;;1.30;99.90;;;-0.62;81.28;99976.63;4996449;28;20038;-40
2020/12/11 00:12:56;;;;;;;17.38;8.35;;;1.30;99.90;;;-0.61;81.63;99979.16;4964251;28;20073;-40
2020/12/11 00:15:23;;;;;;;21.23;9.37;;;1.30;99.90;;;-0.66;81.92;99970.78;4963899;28;20512;-40
2020/12/11 00:17:50;;;;;;;18.02;8.00;;;1.30;99.90;;;-0.66;81.72;99960.06;4963977;28;20570;-40
2020/12/11 00:20:18;;;;;;;23.52;9.57;;;1.30;99.90;;;-0.73;82.12;99953.63;4980235;28;20074;-40
2020/12/11 00:22:45;;;;;;;20.53;9.07;;;1.20;99.90;;;-0.75;82.24;99942.25;4980001;28;20535;-40
2020/12/11 00:25:13;;;;;;;19.15;8.35;;;1.20;99.90;;;-0.70;82.33;99937.25;4963846;28;20536;-40
2020/12/11 00:27:40;;;;;;;17.70;9.27;;;1.20;99.90;;;-0.67;82.13;99941.44;4979077;28;20042;-40
2020/12/11 00:30:07;;;;;;;18.65;8.93;;;1.20;99.90;;;-0.68;81.74;99927.19;4979744;28;20504;-40
2020/12/11 00:32:36;;;;;;;16.97;8.37;;;1.20;99.90;;;-0.67;81.70;99925.38;4947757;28;20084;-40
2020/12/11 00:35:08;;;;;;;17.75;8.35;;;1.20;99.90;;;-0.66;82.13;99927.06;4963734;28;20471;-40
2020/12/11 00:37:36;;;;;;;19.08;8.57;;;1.30;99.90;;;-0.64;81.82;99917.00;4995675;28;20041;-40
2020/12/11 00:40:04;;;;;;;18.15;8.80;;;1.30;99.90;;;-0.60;81.56;99915.69;4947660;28;20046;-40
2020/12/11 00:42:32;;;;;;;15.65;8.13;;;1.30;99.90;;;-0.61;81.78;99919.38;4979576;28;20045;-40
2020/12/11 00:44:59;;;;;;;19.20;9.10;;;1.30;99.90;;;-0.54;81.97;99901.63;4979150;28;20500;-40
2020/12/11 00:47:27;;;;;;;16.17;8.38;;;1.40;99.90;;;-0.54;82.25;99893.59;4947499;28;20133;-40
2020/12/11 00:49:54;;;;;;;16.23;8.20;;;1.40;99.90;;;-0.51;81.30;99885.25;4931813;28;20041;-40
2020/12/11 00:52:22;;;;;;;18.50;8.57;;;1.40;99.90;;;-0.50;82.17;99878.03;4947510;28;20042;-40
2020/12/11 00:54:53;;;;;;;19.42;8.15;;;1.40;99.90;;;-0.44;81.48;99888.09;4948610;28;20129;-40
2020/12/11 00:57:20;;;;;;;;;;;1.40;99.90;;;-0.46;81.65;99893.63;4963918;28;20046;-40
2020/12/11 00:59:48;;;;;;;14.90;7.47;;;1.40;99.90;;;-0.45;81.75;99889.09;4962985;28;19925;-40
2020/12/11 01:02:15;;;;;;;18.13;8.70;;;1.50;99.90;;;-0.42;81.06;99874.53;4947549;28;20503;-40
2020/12/11 01:04:43;;;;;;;16.92;7.80;;;1.50;99.90;;;-0.38;81.54;99870.53;4963006;28;20447;-40
2020/12/11 01:07:11;;;;;;;17.95;8.02;;;1.50;99.90;;;-0.39;81.20;99858.97;4978887;28;20535;-40
2020/12/11 01:09:38;;;;;;;20.27;7.93;;;1.50;99.90;;;-0.35;80.78;99854.97;4963114;28;20038;-40
2020/12/11 01:12:05;;;;;;;13.87;7.77;;;1.50;99.90;;;-0.38;81.41;99843.72;4978730;28;20053;-40
2020/12/11 01:14:32;;;;;;;16.60;8.30;;;1.50;99.90;;;-0.39;81.19;99852.75;4946878;28;20129;-40
2020/12/11 01:17:00;;;;;;;16.48;7.55;;;1.50;99.90;;;-0.42;81.36;99858.47;4962909;28;20128;-40
2020/12/11 01:19:27;;;;;;;15.90;7.65;;;1.50;99.90;;;-0.40;81.15;99853.78;4962761;28;20045;-40
2020/12/11 01:21:54;;;;;;;16.60;8.47;;;1.50;99.90;;;-0.37;80.92;99853.44;4978979;28;20077;-40
2020/12/11 01:24:22;;;;;;;17.08;8.82;;;1.50;99.90;;;-0.42;81.77;99858.47;4963284;28;20052;-40
2020/12/11 01:26:50;;;;;;;15.73;7.75;;;1.50;99.90;;;-0.39;80.69;99855.44;4946779;28;20576;-40
2020/12/11 01:29:17;;;;;;;;;;;1.50;99.90;;;-0.38;81.36;99843.72;4963565;28;20038;-40
2020/12/11 01:31:45;;;;;;;18.10;7.95;;;1.50;99.90;;;-0.32;81.28;99840.38;4978750;28;20346;-40
2020/12/11 01:34:12;;;;;;;19.02;8.43;;;1.50;99.90;;;-0.35;81.04;99846.06;4962403;28;20419;-41
2020/12/11 01:36:39;;;;;;;17.37;8.43;;;1.60;99.90;;;-0.39;81.30;99844.72;4946205;28;20046;-40
2020/12/11 01:39:07;;;;;;;15.30;8.13;;;1.50;99.90;;;-0.41;81.57;99847.56;4945728;28;20506;-40
2020/12/11 01:41:34;;;;;;;18.63;8.30;;;1.50;99.90;;;-0.39;81.07;99840.22;4945919;28;20125;-40
2020/12/11 01:44:12;;;;;;;15.90;8.35;;;1.50;99.90;;;-0.35;81.51;99829.97;4961728;28;20443;-41
2020/12/11 01:46:41;;;;;;;15.20;7.45;;;1.50;99.90;;;-0.33;80.92;99814.56;4961581;28;20394;-40
2020/12/11 01:49:11;;;;;;;15.63;7.75;;;1.50;99.90;;;-0.30;80.67;99809.72;4961869;28;20137;-40
2020/12/11 01:51:39;;;;;;;17.73;7.93;;;1.60;99.90;;;-0.28;81.02;99806.03;4977536;28;20084;-40
2020/12/11 01:54:07;;;;;;;17.40;7.97;;;1.60;99.90;;;-0.30;80.55;99800.84;4961700;28;20045;-40
2020/12/11 01:56:46;;;;;;;16.35;7.72;;;1.60;99.90;;;-0.29;80.61;99789.09;4945991;28;20128;-40
2020/12/11 01:59:26;;;;;;;14.55;7.22;;;1.60;99.90;;;-0.32;80.79;99782.25;4993544;28;20056;-40
2020/12/11 02:01:58;;;;;;;12.57;6.75;;;1.60;99.90;;;-0.29;80.50;99786.41;4979002;28;20073;-40
2020/12/11 02:04:26;;;;;;;16.92;8.45;;;1.60;99.90;;;-0.28;80.89;99784.59;4977134;28;20077;-40
2020/12/11 02:06:53;;;;;;;;;;;1.60;99.90;;;-0.29;80.91;99762.28;4977932;28;20505;-40
2020/12/11 02:09:23;;;;;;;17.73;8.18;;;1.60;99.90;;;-0.30;81.09;99772.19;4961244;28;20350;-40
2020/12/11 02:11:52;;;;;;;16.00;7.85;;;1.60;99.90;;;-0.29;80.97;99767.66;4976879;28;20050;-40
2020/12/11 02:14:19;;;;;;;17.83;8.38;;;1.60;99.90;;;-0.31;80.92;99761.63;4977050;28;20042;-40
2020/12/11 02:16:46;;;;;;;17.80;7.87;;;1.60;99.90;;;-0.30;80.51;99756.09;4945587;28;20080;-40
2020/12/11 02:19:14;;;;;;;17.20;8.13;;;1.60;99.90;;;-0.31;80.52;99751.75;4977381;28;20046;-40
2020/12/11 02:21:42;;;;;;;18.65;8.35;;;1.60;99.90;;;-0.35;80.78;99744.22;4961512;28;20034;-40
2020/12/11 02:24:09;;;;;;;16.60;8.48;;;1.60;99.90;;;-0.33;80.66;99736.84;4961038;28;20038;-40
2020/12/11 02:26:36;;;;;;;15.43;7.53;;;1.60;99.90;;;-0.36;81.10;99734.50;4961168;28;20045;-40
2020/12/11 02:29:03;;;;;;;16.93;7.97;;;1.60;99.90;;;-0.37;80.60;99730.13;4945595;28;20064;-40
2020/12/11 02:31:31;;;;;;;16.05;8.10;;;1.50;99.90;;;-0.43;80.96;99723.59;4961517;28;20440;-40
2020/12/11 02:33:58;;;;;;;18.65;7.80;;;1.50;99.90;;;-0.37;80.53;99717.59;4960980;28;20129;-40
2020/12/11 02:36:25;;;;;;;18.02;8.45;;;1.50;99.90;;;-0.45;80.66;99709.53;4946974;28;883650;-40
2020/12/11 02:38:52;;;;;;;15.35;7.57;;;1.50;99.90;;;-0.50;80.67;99709.19;4961827;28;20120;-40
2020/12/11 02:41:19;;;;;;;16.80;8.60;;;1.40;99.90;;;-0.50;81.15;99699.34;4962447;28;20121;-40
2020/12/11 02:43:47;;;;;;;14.90;8.13;;;1.40;99.90;;;-0.48;80.77;99699.16;4993961;28;20042;-40
2020/12/11 02:46:14;;;;;;;18.17;8.23;;;1.40;99.90;;;-0.53;81.09;99694.31;4945726;28;20050;-40
2020/12/11 02:48:41;;;;;;;16.67;7.90;;;1.40;99.90;;;-0.60;80.95;99690.59;4961785;28;20042;-40
2020/12/11 02:51:11;;;;;;;17.10;8.23;;;1.40;99.90;;;-0.65;81.16;99691.13;4946312;28;20042;-40
2020/12/11 02:53:39;;;;;;;17.40;7.93;;;1.30;99.90;;;-0.67;82.01;99684.25;4981792;28;20449;-40
2020/12/11 02:56:07;;;;;;;16.83;7.93;;;1.30;99.90;;;-0.66;81.39;99685.94;4998070;28;20412;-40
2020/12/11 02:58:34;;;;;;;15.10;7.93;;;1.30;99.90;;;-0.62;81.30;99687.25;4950075;28;20423;-40
2020/12/11 03:01:01;;;;;;;15.98;7.95;;;1.30;99.90;;;-0.66;82.07;99691.28;4949387;28;20042;-40
2020/12/11 03:03:28;;;;;;;18.77;7.70;;;1.30;99.90;;;-0.70;82.06;99693.44;4949282;28;20512;-40
2020/12/11 03:05:55;;;;;;;20.55;9.10;;;1.30;99.90;;;-0.65;81.95;99693.81;4981637;28;20049;-40
2020/12/11 03:08:22;;;;;;;18.75;8.43;;;1.30;99.90;;;-0.74;82.23;99695.63;4965748;28;20412;-40
2020/12/11 03:10:50;;;;;;;17.00;7.23;;;1.20;99.90;;;-0.70;81.32;99695.31;4965338;28;20038;-40
2020/12/11 03:13:17;;;;;;;16.23;7.90;;;1.20;99.90;;;-0.78;82.66;99688.09;4965180;28;20045;-40
2020/12/11 03:15:44;;;;;;;17.75;7.97;;;1.20;99.90;;;-0.80;82.32;99701.63;4965024;28;20045;-40
2020/12/11 03:18:12;;;;;;;14.57;6.73;;;1.20;99.90;;;-0.81;82.65;99693.78;4933661;28;20136;-40
2020/12/11 03:20:39;;;;;;;14.27;6.87;;;1.10;99.90;;;-0.73;82.25;99686.59;4949218;28;20046;-40
2020/12/11 03:23:06;;;;;;;15.15;7.40;;;1.10;99.90;;;-0.68;81.92;99687.94;4949446;28;20865;-40
2020/12/11 03:25:34;;;;;;;15.73;7.68;;;1.20;99.90;;;-0.73;81.33;99686.59;4964736;28;20512;-40
2020/12/11 03:28:01;;;;;;;15.90;7.80;;;1.20;99.90;;;-0.69;81.65;99681.72;4964909;28;20283;-40
2020/12/11 03:30:30;;;;;;;15.68;7.82;;;1.20;99.90;;;-0.69;82.40;99667.50;4964965;28;20042;-40
2020/12/11 03:32:57;;;;;;;14.57;7.38;;;1.20;99.90;;;-0.60;81.70;99669.16;4980808;28;20061;-40
2020/12/11 03:35:24;;;;;;;15.90;8.23;;;1.30;99.90;;;-0.65;81.49;99653.63;4949072;28;20451;-41
2020/12/11 03:37:51;;;;;;;15.77;8.07;;;1.30;99.90;;;-0.66;81.71;99659.13;4933051;28;20546;-40
2020/12/11 03:40:18;;;;;;;14.77;7.25;;;1.30;99.90;;;-0.57;81.54;99650.06;4964818;28;20121;-40
2020/12/11 03:42:46;;;;;;;14.37;7.27;;;1.30;99.90;;;-0.48;81.15;99650.91;4949041;28;20038;-40
2020/12/11 03:45:13;;;;;;;16.58;7.80;;;1.40;99.90;;;-0.40;80.99;99644.72;4964422;28;20460;-40
2020/12/11 03:47:41;;;;;;;13.93;7.43;;;1.50;99.90;;;-0.39;80.43;99649.06;4964240;28;20042;-40
2020/12/11 03:50:08;;;;;;;;;;;1.50;99.90;;;-0.38;81.29;99640.00;4949537;28;20045;-40
2020/12/11 03:52:35;;;;;;;13.25;6.55;;;1.50;99.90;;;-0.34;80.61;99635.97;4980904;28;19922;-40
2020/12/11 03:55:03;;;;;;;16.20;7.47;;;1.50;99.90;;;-0.26;80.29;99638.66;4964549;28;20424;-40
2020/12/11 03:57:31;;;;;;;13.98;6.70;;;1.60;99.90;;;-0.24;79.89;99638.47;4980599;28;20060;-40
2020/12/11 03:59:58;;;;;;;15.57;8.52;;;1.60;99.90;;;-0.25;80.20;99640.34;4980399;28;20460;-40
2020/12/11 04:02:25;;;;;;;12.32;6.82;;;1.70;99.90;;;-0.24;79.36;99614.34;4979834;28;20045;-40
2020/12/11 04:04:52;;;;;;;16.13;7.83;;;1.70;99.90;;;-0.16;80.21;99623.22;4980596;28;20064;-40
2020/12/11 04:07:20;;;;;;;14.95;7.63;;;1.70;99.90;;;-0.21;79.43;99609.50;4964265;28;21069;-40
2020/12/11 04:09:47;;;;;;;14.70;7.53;;;1.70;99.90;;;-0.19;79.55;99615.53;4964288;28;20052;-40
2020/12/11 04:12:14;;;;;;;19.23;7.73;;;1.70;99.90;;;-0.16;79.99;99607.13;4980482;28;20050;-40
2020/12/11 04:14:42;;;;;;;16.10;7.22;;;1.70;99.90;;;-0.17;79.65;99616.19;4948294;28;20472;-40
2020/12/11 04:17:10;;;;;;;16.27;7.80;;;1.70;99.90;;;-0.16;79.86;99609.81;4964238;28;20398;-40
2020/12/11 04:19:37;;;;;;;15.93;7.65;;;1.70;99.90;;;-0.15;79.59;99611.47;4995993;28;20045;-40
2020/12/11 04:22:05;;;;;;;15.82;7.20;;;1.70;99.90;;;-0.20;79.59;99605.81;4948268;28;20088;-40
2020/12/11 04:24:32;;;;;;;14.93;8.18;;;1.70;99.90;;;-0.19;79.77;99598.59;4979699;28;20049;-40
2020/12/11 04:27:00;;;;;;;16.92;7.78;;;1.70;99.90;;;-0.23;79.85;99595.44;4932293;28;20066;-40
2020/12/11 04:29:27;;;;;;;16.10;7.80;;;1.70;99.90;;;-0.18;79.46;99593.06;4963879;28;20544;-41
2020/12/11 04:31:57;;;;;;;15.07;7.30;;;1.70;99.90;;;-0.20;79.79;99595.06;4948027;28;20100;-40
2020/12/11 04:34:25;;;;;;;15.18;7.28;;;1.70;99.90;;;-0.20;79.63;99600.44;4979270;28;20504;-40
2020/12/11 04:36:56;;;;;;;15.70;7.13;;;1.70;99.90;;;-0.22;79.35;99597.09;4997085;28;20504;-40
2020/12/11 04:39:25;;;;;;;14.18;7.00;;;1.70;99.90;;;-0.24;79.89;99601.78;4963455;28;20161;-40
2020/12/11 04:41:54;;;;;;;15.43;7.82;;;1.70;99.90;;;-0.24;79.86;99598.25;4979691;28;20050;-40
2020/12/11 04:44:22;;;;;;;15.40;7.50;;;1.60;99.90;;;-0.26;79.58;99582.38;4979178;28;20054;-40
2020/12/11 04:46:50;;;;;;;14.13;7.43;;;1.70;99.90;;;-0.25;79.86;99557.22;4963474;28;20041;-40
2020/12/11 04:49:19;;;;;;;14.77;7.18;;;1.70;99.90;;;-0.29;80.35;99563.91;5013224;28;20042;-40
2020/12/11 04:51:51;;;;;;;14.30;7.35;;;1.60;99.90;;;-0.25;79.69;99553.69;4979411;28;20129;-40
2020/12/11 04:54:21;;;;;;;16.00;8.13;;;1.60;99.90;;;-0.37;80.39;99540.69;4995355;28;20104;-40
2020/12/11 04:56:51;;;;;;;11.50;6.18;;;1.60;99.90;;;-0.31;80.16;99528.41;4963146;28;20049;-40
2020/12/11 04:59:20;;;;;;;12.05;7.13;;;1.60;99.90;;;-0.39;79.96;99537.34;4979244;28;20524;-40
2020/12/11 05:01:47;;;;;;;13.30;7.07;;;1.50;99.90;;;-0.42;80.48;99536.84;4963133;28;20041;-40
2020/12/11 05:04:14;;;;;;;13.52;7.05;;;1.50;99.90;;;-0.45;80.37;99527.28;4962969;28;20054;-40
2020/12/11 05:06:43;;;;;;;15.55;7.45;;;1.50;99.90;;;-0.57;80.92;99529.50;4979123;28;20048;-40
2020/12/11 05:09:13;;;;;;;15.40;7.43;;;1.40;99.90;;;-0.53;80.52;99516.59;4979679;28;20472;-40
2020/12/11 05:11:45;;;;;;;14.90;7.10;;;1.40;99.90;;;-0.57;80.86;99513.41;4962789;28;20073;-40
2020/12/11 05:14:34;;;;;;;14.98;7.88;;;1.40;99.90;;;-0.58;80.87;99511.75;4994201;28;20046;-40
2020/12/11 05:17:05;;;;;;;13.70;6.65;;;1.30;99.90;;;-0.65;81.31;99498.22;4994987;28;20424;-40
2020/12/11 05:19:51;;;;;;;15.02;6.80;;;1.30;99.90;;;-0.71;81.13;99506.13;4995129;28;20074;-40
2020/12/11 05:22:22;;;;;;;14.75;7.53;;;1.30;99.90;;;-0.71;81.79;99501.56;4994921;28;20053;-40
2020/12/11 05:24:54;;;;;;;14.18;7.10;;;1.20;99.90;;;-0.70;81.39;99497.06;4978781;28;20455;-40
2020/12/11 05:27:32;;;;;;;16.08;7.40;;;1.20;99.90;;;-0.74;81.63;99478.66;4963348;28;20050;-40
2020/12/11 05:30:21;;;;;;;19.40;7.55;;;1.20;99.90;;;-0.63;81.21;99465.91;4978533;28;20045;-40
2020/12/11 05:32:58;;;;;;;14.07;7.05;;;1.30;99.90;;;-0.61;81.39;99456.69;4979185;28;20386;-40
2020/12/11 05:35:37;;;;;;;12.20;6.40;;;1.30;99.90;;;-0.52;80.80;99451.28;4978810;28;20049;-40
2020/12/11 05:38:09;;;;;;;16.88;8.48;;;1.40;99.90;;;-0.54;81.01;99443.41;4978542;28;20073;-40
2020/12/11 05:40:40;;;;;;;18.02;8.10;;;1.40;99.90;;;-0.56;80.74;99439.25;4994525;28;20481;-40
2020/12/11 05:43:19;;;;;;;16.88;7.55;;;1.40;99.90;;;-0.64;80.79;99427.56;5012115;28;20064;-40
2020/12/11 05:46:00;;;;;;;16.98;7.70;;;1.30;99.90;;;-0.60;80.90;99417.31;4994490;28;20571;-40
2020/12/11 05:48:39;;;;;;;16.75;7.15;;;1.30;99.90;;;-0.52;80.37;99401.22;4978953;28;20045;-40
2020/12/11 05:51:16;;;;;;;13.60;7.18;;;1.40;99.90;;;-0.59;80.93;99392.19;5011930;28;20092;-40
2020/12/11 05:53:44;;;;;;;15.93;7.38;;;1.30;99.90;;;-0.60;80.75;99386.00;4978401;28;20288;-40
2020/12/11 05:56:11;;;;;;;16.90;8.00;;;1.30;99.90;;;-0.55;80.99;99363.22;4978550;28;20048;-40
2020/12/11 05:58:42;;;;;;;16.35;7.93;;;1.40;99.90;;;-0.54;80.42;99376.41;4978522;28;20140;-40
2020/12/11 06:01:18;;;;;;;14.90;7.18;;;1.40;99.90;;;-0.52;80.70;99366.38;5011975;28;20121;-40
2020/12/11 06:03:46;;;;;;;15.10;7.38;;;1.40;99.90;;;-0.54;80.18;99363.03;4977996;28;20444;-40
2020/12/11 06:06:16;;;;;;;15.52;7.25;;;1.40;99.90;;;-0.56;80.45;99367.72;4978458;28;20065;-40
2020/12/11 06:08:45;;;;;;;15.48;7.50;;;1.40;99.90;;;-0.54;80.54;99357.66;4994553;28;20117;-40
2020/12/11 06:11:22;;;;;;;14.93;7.20;;;1.40;99.90;;;-0.51;80.58;99351.13;4978074;28;20053;-40
2020/12/11 06:14:02;;;;;;;16.25;7.47;;;1.40;99.90;;;-0.55;80.51;99344.47;4993768;28;20069;-40
2020/12/11 06:16:37;;;;;;;17.17;7.90;;;1.40;99.90;;;-0.50;80.52;99352.81;5011687;28;20519;-40
2020/12/11 06:19:06;;;;;;;15.27;7.78;;;1.40;99.90;;;-0.49;80.38;99347.28;4994927;28;20046;-40
2020/12/11 06:21:37;;;;;;;13.13;6.88;;;1.40;99.90;;;-0.58;80.75;99337.59;4994231;28;20100;-40
2020/12/11 06:24:26;;;;;;;15.85;7.60;;;1.40;99.90;;;-0.55;80.81;99334.56;5011432;28;20104;-40
2020/12/11 06:26:59;;;;;;;15.18;7.68;;;1.40;99.90;;;-0.53;80.36;99327.22;4968068;28;20088;-40
2020/12/11 06:29:31;;;;;;;17.02;8.25;;;1.40;99.90;;;-0.49;80.39;99320.47;4998107;28;20508;-40
2020/12/11 06:31:59;;;;;;;17.02;8.23;;;1.40;99.90;;;-0.51;80.10;99313.63;5015559;28;20462;-40
2020/12/11 06:34:26;;;;;;;14.38;7.28;;;1.40;99.90;;;-0.49;79.86;99303.56;4998028;28;20042;-40
2020/12/11 06:36:55;;;;;;;16.40;7.75;;;1.40;99.90;;;-0.53;80.28;99319.16;4998155;28;20104;-40
2020/12/11 06:39:52;;;;;;;16.42;8.00;;;1.40;99.90;;;-0.52;80.68;99318.16;5015307;28;20129;-40
2020/12/11 06:42:39;;;;;;;15.38;7.57;;;1.40;99.90;;;-0.42;79.97;99309.03;4981692;28;20098;-40
2020/12/11 06:45:26;;;;;;;13.75;7.32;;;1.50;99.90;;;-0.52;80.10;99320.00;4981382;28;20571;-40
2020/12/11 06:48:03;;;;;;;18.67;8.05;;;1.40;99.90;;;-0.58;80.63;99313.47;5015377;28;20467;-40
2020/12/11 06:50:33;;;;;;;17.17;8.05;;;1.40;99.90;;;-0.49;80.24;99304.41;5015395;28;20042;-40
2020/12/11 06:53:00;;;;;;;18.80;7.57;;;1.40;99.90;;;-0.36;79.79;99313.69;5015305;28;20149;-40
2020/12/11 06:55:56;;;;;;;14.05;7.75;;;1.50;99.90;;;-0.41;80.02;99306.16;4997653;28;20504;-40
2020/12/11 06:58:23;;;;;;;17.83;7.70;;;1.50;99.90;;;-0.34;80.01;99303.63;5015308;28;20046;-40
2020/12/11 07:00:59;;;;;;;14.88;7.30;;;1.60;99.90;;;-0.38;79.90;99291.59;4997529;28;20535;-40
2020/12/11 07:03:30;;;;;;;18.08;8.18;;;1.50;99.90;;;-0.34;80.01;99291.06;4997229;28;20045;-40
2020/12/11 07:06:08;;;;;;;15.07;7.95;;;1.50;99.90;;;-0.35;80.19;99296.59;4981639;28;20144;-40
2020/12/11 07:08:37;;;;;;;15.02;7.53;;;1.60;99.90;;;-0.33;79.99;99298.09;5014911;28;20559;-40
2020/12/11 07:11:07;;;;;;;13.70;7.10;;;1.50;99.90;;;-0.28;80.02;99291.34;5014947;28;20061;-40
2020/12/11 07:13:36;;;;;;;14.02;7.15;;;1.60;99.90;;;-0.23;80.02;99291.66;5014277;28;20046;-40
2020/12/11 07:16:05;;;;;;;17.75;7.90;;;1.60;99.90;;;-0.21;79.65;99297.66;4981336;28;20049;-40
2020/12/11 07:18:33;;;;;;;17.00;8.45;;;1.70;99.90;;;-0.35;79.94;99276.00;4981561;28;20124;-40
2020/12/11 07:21:01;;;;;;;16.48;7.57;;;1.70;99.90;;;-0.23;80.29;99295.19;4981400;28;20049;-40
2020/12/11 07:23:28;;;;;;;;;;;1.70;99.90;;;-0.18;79.75;99282.06;4997344;28;20133;-40
2020/12/11 07:25:56;;;;;;;17.65;7.82;;;1.70;99.90;;;-0.10;79.43;99283.84;5014403;28;19921;-40
2020/12/11 07:28:24;;;;;;;15.30;7.60;;;1.80;99.90;;;-0.14;79.61;99274.47;4996939;28;20152;-41
2020/12/11 07:30:51;;;;;;;14.27;7.47;;;1.80;99.90;;;-0.13;79.75;99272.63;4997095;28;20508;-40
2020/12/11 07:33:19;;;;;;;14.40;7.57;;;1.80;99.90;;;-0.07;79.36;99290.69;4980824;28;20073;-40
2020/12/11 07:35:50;;;;;;;16.40;7.80;;;1.80;99.90;;;0.06;79.31;99276.66;4996786;28;20529;-40
2020/12/11 07:38:26;;;;;;;17.58;7.05;;;1.90;99.90;;;0.04;78.98;99274.16;5013969;28;20046;-40
2020/12/11 07:40:56;;;;;;;15.52;7.65;;;1.90;99.90;;;0.11;78.86;99268.88;5014285;28;20463;-40
2020/12/11 07:43:24;;;;;;;15.73;8.40;;;1.90;99.90;;;0.09;78.54;99271.78;5014205;28;20124;-40
2020/12/11 07:45:52;;;;;;;17.13;7.60;;;1.90;99.90;;;0.10;78.67;99278.78;4980985;28;20038;-40
2020/12/11 07:48:19;;;;;;;14.70;7.75;;;2.00;99.90;;;0.18;78.40;99269.00;4980785;28;20415;-40
2020/12/11 07:50:46;;;;;;;13.43;6.78;;;2.00;99.90;;;0.14;78.87;99274.72;4996849;28;20042;-40
2020/12/11 07:53:14;;;;;;;15.65;7.75;;;2.00;99.90;;;0.17;78.56;99276.22;5014052;28;20046;-40
2020/12/11 07:55:44;;;;;;;13.68;7.32;;;2.00;99.90;;;0.18;78.63;99279.72;4981657;28;20056;-40
2020/12/11 07:58:12;;;;;;;14.95;7.32;;;2.00;99.90;;;0.18;78.76;99279.72;4996642;28;20045;-40
2020/12/11 08:00:39;;;;;;;14.23;7.43;;;2.10;99.90;;;0.22;78.53;99283.72;4996429;28;20042;-40
2020/12/11 08:03:08;;;;;;;13.77;7.10;;;2.00;99.90;;;0.24;78.49;99293.25;5013880;28;20042;-40
2020/12/11 08:05:38;;;;;;;13.45;6.70;;;2.10;99.90;;;0.31;77.93;99282.63;4980114;28;20041;-40
2020/12/11 08:08:07;;;;;;;12.50;7.13;;;2.20;99.90;;;0.28;78.55;99273.09;4980305;28;20594;-40
2020/12/11 08:10:40;;;;;;;11.77;6.35;;;2.10;99.90;;;0.46;77.26;99271.91;5013900;28;20468;-40
2020/12/11 08:13:12;;;;;;;14.82;7.85;;;2.20;99.90;;;0.51;77.98;99279.38;5013635;28;20100;-40
2020/12/11 08:15:41;;;;;;;14.93;7.57;;;2.30;99.90;;;0.52;77.71;99267.63;4995933;28;20121;-40
2020/12/11 08:18:12;;;;;;;14.52;7.20;;;2.30;99.90;;;0.61;77.08;99273.75;4964178;28;20069;-40
2020/12/11 08:20:48;;;;;;;12.75;6.45;;;2.40;99.90;;;0.66;76.86;99264.13;4996067;28;20133;-40
2020/12/11 08:23:19;;;;;;;14.57;7.25;;;2.40;99.90;;;0.73;77.25;99261.53;5013440;28;20046;-40
2020/12/11 08:25:47;;;;;;;12.13;6.68;;;2.50;99.90;;;0.78;77.02;99258.25;4995888;28;20050;-40
2020/12/11 08:28:24;;;;;;;13.55;7.22;;;2.60;99.90;;;0.84;77.17;99258.34;4997647;28;20104;-40
2020/12/11 08:30:51;;;;;;;14.48;6.95;;;2.70;99.90;;;0.89;77.43;99259.66;4996019;28;20546;-40
2020/12/11 08:33:18;;;;;;;11.38;6.57;;;2.70;99.90;;;0.92;77.53;99248.53;4979614;28;20508;-40
2020/12/11 08:35:45;;;;;;;13.30;6.68;;;2.70;99.90;;;0.97;77.27;99244.25;5013011;28;20046;-40
2020/12/11 08:38:14;;;;;;;16.40;7.50;;;2.80;99.90;;;0.96;77.09;99239.91;4996061;28;20060;-40
2020/12/11 08:40:51;;;;;;;12.82;6.70;;;2.80;99.90;;;1.08;77.22;99240.25;4996021;28;20478;-40
2020/12/11 08:49:01;;;;;;;13.43;6.78;;;3.00;99.90;;;1.26;76.25;99237.13;5012554;28;20066;-40
2020/12/11 08:51:29;;;;;;;15.57;7.25;;;3.10;99.90;;;1.29;76.42;99233.25;5013019;28;20072;-40
2020/12/11 08:53:57;;;;;;;13.88;6.45;;;3.10;99.90;;;1.38;74.97;99224.03;4995749;28;20065;-40
2020/12/11 08:56:43;;;;;;;14.02;6.90;;;3.20;99.90;;;1.44;75.97;99222.44;4968846;28;20397;-40
2020/12/11 08:59:11;;;;;;;13.15;7.00;;;3.20;99.90;;;1.47;75.82;99226.59;5012950;28;20062;-40
2020/12/11 09:01:47;;;;;;;13.23;6.47;;;3.20;99.90;;;1.54;75.22;99235.56;4979326;28;20054;-40
2020/12/11 09:04:15;;;;;;;13.00;6.88;;;3.30;99.90;;;1.57;74.53;99214.47;4995284;28;21015;-40
2020/12/11 09:06:44;;;;;;;11.73;6.30;;;3.30;99.90;;;1.57;75.25;99219.84;4979177;28;20034;-40
2020/12/11 09:09:11;;;;;;;12.02;6.47;;;3.40;99.90;;;1.59;75.33;99217.00;5012628;28;20501;-40
2020/12/11 09:11:39;;;;;;;13.48;7.05;;;3.40;99.90;;;1.61;74.88;99222.19;4994967;28;20044;-41
2020/12/11 09:14:06;;;;;;;13.98;7.25;;;3.40;99.90;;;1.57;75.42;99214.47;4978737;28;20073;-40
2020/12/11 09:16:33;;;;;;;13.13;6.60;;;3.40;99.90;;;1.62;75.78;99221.16;4995094;28;20500;-40
2020/12/11 09:19:00;;;;;;;11.18;6.25;;;3.40;99.90;;;1.68;75.26;99204.25;4995356;28;20129;-40
2020/12/11 09:21:28;;;;;;;12.70;6.80;;;3.40;99.90;;;1.73;74.72;99212.56;4994959;28;20420;-40
2020/12/11 09:23:55;;;;;;;17.00;7.30;;;3.50;99.90;;;1.74;75.65;99202.66;5012107;28;20467;-40
2020/12/11 09:26:25;;;;;;;12.70;7.15;;;3.50;99.90;;;1.78;74.92;99210.09;5012209;28;20050;-40
2020/12/11 09:29:01;;;;;;;15.10;6.90;;;3.60;99.90;;;1.77;74.89;99197.69;4995684;28;20140;-40
2020/12/11 09:31:30;;;;;;;12.05;5.97;;;3.60;99.90;;;1.81;74.84;99212.41;4996225;28;20129;-40
2020/12/11 09:33:57;;;;;;;12.02;6.15;;;3.60;99.90;;;1.84;74.29;99219.25;4994934;28;20041;-41
2020/12/11 09:36:25;;;;;;;12.57;6.50;;;3.60;99.90;;;1.89;73.76;99199.88;4994653;28;20133;-40
2020/12/11 09:38:53;;;;;;;13.20;6.72;;;3.60;99.90;;;1.89;74.43;99194.47;4995086;28;20412;-40
2020/12/11 09:41:28;;;;;;;12.70;6.70;;;3.70;99.90;;;1.91;74.84;99195.13;4994891;28;20587;-40
2020/12/11 09:54:26;;;;;;;14.55;6.63;;;3.80;99.90;;;1.98;75.84;99198.69;4995882;28;20048;-40
2020/12/11 09:56:56;;;;;;;12.13;6.70;;;3.80;99.90;;;1.99;76.90;99201.19;5012034;28;20042;-40
2020/12/11 09:59:29;;;;;;;12.63;6.65;;;3.80;99.90;;;1.95;79.13;99199.88;4994517;28;20042;-40
2020/12/11 10:04:26;;;;;;;12.70;6.85;;;3.70;99.90;;;1.80;78.87;99200.00;5011790;28;20049;-40
2020/12/11 10:06:53;;;;;;;12.30;6.50;;;3.60;99.90;;;1.77;80.49;99197.69;4994051;28;20297;-40
2020/12/11 10:09:20;;;;;;;15.32;7.05;;;3.60;99.90;;;1.79;79.12;99190.25;4994501;28;20046;-40
2020/12/11 10:11:52;;;;;;;12.57;6.03;;;3.60;99.90;;;1.83;79.84;99194.22;4962185;28;20045;-40
2020/12/11 10:16:58;;;;;;;12.80;6.53;;;3.60;99.90;;;1.90;78.75;99178.13;4979757;28;20074;-40
2020/12/11 10:19:26;;;;;;;11.35;6.00;;;3.70;99.90;;;1.98;78.89;99171.78;5011783;28;20132;-40
2020/12/11 10:21:55;;;;;;;13.93;7.38;;;3.70;99.90;;;2.05;78.81;99159.19;4994353;28;20462;-40
2020/12/11 10:24:23;;;;;;;12.52;6.10;;;3.80;99.90;;;2.12;78.03;99153.84;5011458;28;20129;-40
2020/12/11 10:26:51;;;;;;;12.90;6.35;;;3.80;99.90;;;2.15;77.80;99157.00;4993813;28;20129;-40
2020/12/11 10:29:19;;;;;;;13.90;6.72;;;3.90;99.90;;;2.24;78.03;99148.75;4978411;28;20052;-40
2020/12/11 10:31:46;;;;;;;12.90;7.43;;;4.00;99.90;;;2.24;77.13;99148.75;5011716;28;20096;-40
2020/12/11 10:34:16;;;;;;;12.95;7.15;;;4.00;99.90;;;2.30;77.13;99137.19;4978180;28;20129;-40
2020/12/11 10:36:44;;;;;;;12.82;6.40;;;4.00;99.90;;;2.33;77.22;99134.09;4995406;28;20053;-40
2020/12/11 10:39:12;;;;;;;11.75;6.38;;;4.10;99.90;;;2.38;77.91;99133.50;5011748;28;20053;-40
2020/12/11 10:41:41;;;;;;;10.38;5.90;;;4.10;99.90;;;2.43;77.10;99137.25;4994456;28;20052;-40
2020/12/11 10:44:09;;;;;;;8.40;5.38;;;4.20;99.90;;;2.51;76.07;99132.72;5011346;28;20048;-40
2020/12/11 10:46:36;;;;;;;11.43;6.45;;;4.20;99.90;;;2.57;76.01;99118.44;4977994;28;20042;-40
2020/12/11 10:49:03;;;;;;;18.50;6.57;;;4.30;99.90;;;2.59;75.66;99117.22;4978143;28;20468;-41
2020/12/11 10:51:31;;;;;;;13.02;6.22;;;4.30;99.90;;;2.67;76.31;99120.75;4962068;28;20044;-40
2020/12/11 10:53:59;;;;;;;;;;;4.40;99.90;;;2.73;76.94;99117.25;4978698;28;20121;-40